Time;durP1;ratioP1;P1;durP2;ratioP2;P2;SDS_P1;SDS_P2;PMS_P1;PMS_P2;Temp;Humidity;BMP_temperature;BMP_pressure;BME280_temperature;BME280_humidity;BME280_pressure;Samples;Min_cycle;Max_cycle;Signal;HPM_P1;HPM_P2
2022/03/07 00:00:35;;;;;;;11.37;10.17;;;1.90;94.20;;;;;;5049907;28;21012;-68
2022/03/07 00:03:03;;;;;;;16.27;10.97;;;1.90;94.00;;;;;;5050333;28;20968;-68
2022/03/07 00:05:31;;;;;;;11.63;10.00;;;1.80;94.30;;;;;;5051720;28;20459;-66
2022/03/07 00:07:58;;;;;;;13.10;11.40;;;1.80;94.40;;;;;;5052406;28;20455;-66
2022/03/07 00:10:25;;;;;;;11.13;9.60;;;1.80;94.60;;;;;;5052169;28;20532;-66
2022/03/07 00:12:52;;;;;;;13.37;11.00;;;1.80;94.80;;;;;;5052184;28;20531;-67
2022/03/07 00:15:19;;;;;;;10.70;9.13;;;1.70;94.70;;;;;;5052233;28;20444;-67
2022/03/07 00:17:46;;;;;;;12.40;9.90;;;1.70;94.80;;;;;;5052142;28;20491;-67
2022/03/07 00:20:13;;;;;;;11.90;9.53;;;1.70;94.90;;;;;;5052271;28;20539;-67
2022/03/07 00:22:42;;;;;;;11.10;8.83;;;1.60;94.80;;;;;;5052135;28;21064;-67
2022/03/07 00:25:10;;;;;;;10.50;9.37;;;1.60;95.00;;;;;;5052005;28;20834;-67
2022/03/07 00:27:37;;;;;;;12.00;9.60;;;1.60;95.30;;;;;;5052219;28;20451;-67
2022/03/07 00:30:05;;;;;;;13.23;9.07;;;1.50;95.20;;;;;;5052199;28;20459;-66
2022/03/07 00:32:32;;;;;;;12.63;8.63;;;1.50;95.30;;;;;;5052219;28;20468;-66
2022/03/07 00:34:59;;;;;;;11.60;9.93;;;1.50;95.30;;;;;;5051764;28;20455;-67
2022/03/07 00:37:25;;;;;;;12.97;9.20;;;1.50;95.30;;;;;;5052113;28;20897;-67
2022/03/07 00:39:54;;;;;;;10.10;8.80;;;1.50;95.30;;;;;;5051801;28;20445;-66
2022/03/07 00:42:21;;;;;;;10.17;8.90;;;1.50;95.60;;;;;;5052251;28;20464;-66
2022/03/07 00:44:47;;;;;;;10.50;9.10;;;1.50;95.80;;;;;;5051834;28;20476;-66
2022/03/07 00:47:14;;;;;;;10.63;8.87;;;1.50;95.90;;;;;;5052011;28;20543;-66
2022/03/07 00:49:41;;;;;;;10.20;8.80;;;1.40;95.90;;;;;;5053920;28;20443;-66
2022/03/07 00:52:08;;;;;;;10.30;9.10;;;1.40;96.00;;;;;;5054102;28;20559;-66
2022/03/07 00:54:35;;;;;;;10.13;8.80;;;1.40;96.10;;;;;;5055018;28;20452;-66
2022/03/07 00:57:04;;;;;;;15.20;9.27;;;1.30;96.50;;;;;;5055786;28;20456;-66
2022/03/07 00:59:30;;;;;;;12.07;9.70;;;1.30;96.40;;;;;;5053307;28;20972;-66
2022/03/07 01:01:57;;;;;;;9.70;8.37;;;1.20;96.40;;;;;;5053007;28;20913;-66
2022/03/07 01:04:24;;;;;;;10.97;9.00;;;1.20;96.60;;;;;;5052461;28;20571;-66
2022/03/07 01:06:51;;;;;;;10.73;9.10;;;1.20;96.50;;;;;;5052356;28;20448;-66
2022/03/07 01:09:18;;;;;;;9.43;8.50;;;1.30;96.70;;;;;;5052042;28;20535;-66
2022/03/07 01:11:45;;;;;;;9.80;8.50;;;1.20;96.60;;;;;;5051629;28;20984;-66
2022/03/07 01:14:13;;;;;;;12.90;9.03;;;1.20;96.70;;;;;;5051334;28;20443;-66
2022/03/07 01:16:40;;;;;;;11.80;8.90;;;1.20;96.70;;;;;;5051297;28;20950;-66
2022/03/07 01:19:07;;;;;;;11.87;8.90;;;1.20;96.80;;;;;;5051258;28;20479;-66
2022/03/07 01:21:33;;;;;;;9.33;8.43;;;1.20;97.10;;;;;;5051135;28;20466;-66
2022/03/07 01:24:00;;;;;;;9.40;7.50;;;1.20;97.20;;;;;;5051091;28;20987;-67
2022/03/07 01:26:27;;;;;;;10.50;9.50;;;1.10;97.60;;;;;;5050765;28;20543;-66
2022/03/07 01:28:54;;;;;;;10.27;9.20;;;1.10;97.40;;;;;;5051000;28;20472;-66
2022/03/07 01:31:22;;;;;;;10.13;8.90;;;1.10;97.10;;;;;;5050663;28;20568;-66
2022/03/07 01:33:49;;;;;;;10.43;8.40;;;1.00;97.40;;;;;;5050687;28;20678;-67
2022/03/07 01:36:16;;;;;;;12.97;8.90;;;1.00;97.60;;;;;;5050354;28;20455;-66
2022/03/07 01:38:43;;;;;;;9.40;8.33;;;0.90;97.70;;;;;;5050871;28;20486;-66
2022/03/07 01:41:09;;;;;;;9.83;8.83;;;0.90;97.60;;;;;;5050987;28;20474;-66
2022/03/07 01:43:36;;;;;;;9.50;8.40;;;0.90;98.00;;;;;;5050862;28;20448;-66
2022/03/07 01:46:03;;;;;;;9.77;7.83;;;0.80;97.80;;;;;;5050617;28;20471;-66
2022/03/07 01:48:31;;;;;;;9.90;8.87;;;0.80;97.70;;;;;;5050606;28;20538;-66
2022/03/07 01:50:58;;;;;;;10.93;9.03;;;0.70;97.60;;;;;;5050386;28;20543;-66
2022/03/07 01:53:25;;;;;;;10.10;8.87;;;0.70;97.60;;;;;;5050709;28;20934;-66
2022/03/07 01:55:52;;;;;;;11.93;8.80;;;0.70;97.50;;;;;;5050253;28;20444;-66
2022/03/07 01:58:19;;;;;;;10.30;8.33;;;0.60;97.60;;;;;;5050380;28;20486;-66
2022/03/07 02:00:47;;;;;;;11.73;8.57;;;0.50;97.60;;;;;;5050517;28;20564;-65
2022/03/07 02:03:14;;;;;;;11.87;8.83;;;0.50;97.50;;;;;;5050426;28;20458;-66
2022/03/07 02:05:46;;;;;;;11.20;9.40;;;0.40;97.40;;;;;;5050508;28;20452;-66
2022/03/07 02:08:13;;;;;;;9.20;8.20;;;0.30;97.50;;;;;;5050658;28;20447;-66
2022/03/07 02:10:42;;;;;;;9.60;8.60;;;0.20;97.40;;;;;;5050829;28;20467;-67
2022/03/07 02:13:12;;;;;;;9.73;8.60;;;0.10;97.30;;;;;;5050690;28;20452;-67
2022/03/07 02:15:39;;;;;;;12.10;9.57;;;-0.10;97.80;;;;;;5050142;28;20479;-66
2022/03/07 02:18:06;;;;;;;11.43;9.17;;;-0.20;98.20;;;;;;5050981;28;20545;-66
2022/03/07 02:20:33;;;;;;;10.20;8.77;;;-0.20;98.40;;;;;;5050232;28;20895;-66
2022/03/07 02:23:02;;;;;;;10.70;9.00;;;-0.30;98.20;;;;;;5050666;28;20526;-66
2022/03/07 02:25:29;;;;;;;9.73;8.40;;;-0.30;98.20;;;;;;5055975;28;20454;-66
2022/03/07 02:27:55;;;;;;;11.73;9.27;;;-0.40;98.60;;;;;;5056937;28;20949;-66
2022/03/07 02:30:22;;;;;;;10.53;9.27;;;-0.50;98.80;;;;;;5056363;28;20452;-66
2022/03/07 02:32:49;;;;;;;11.07;9.13;;;-0.60;99.40;;;;;;5057067;28;20479;-66
2022/03/07 02:35:16;;;;;;;13.57;9.00;;;-0.70;99.30;;;;;;5056851;28;20454;-67
2022/03/07 02:37:43;;;;;;;12.03;9.60;;;-0.70;99.90;;;;;;5056919;28;20566;-66
2022/03/07 02:40:13;;;;;;;14.00;10.47;;;-0.90;99.90;;;;;;5057033;28;20479;-66
2022/03/07 02:42:40;;;;;;;13.27;9.33;;;-0.90;99.90;;;;;;5057187;28;20616;-66
2022/03/07 02:45:08;;;;;;;11.40;9.80;;;-0.90;99.90;;;;;;5056968;28;20483;-66
2022/03/07 02:47:35;;;;;;;11.13;9.30;;;-1.10;99.90;;;;;;5057429;28;20454;-66
2022/03/07 02:50:02;;;;;;;11.73;9.70;;;-1.10;99.90;;;;;;5057170;28;20447;-66
2022/03/07 02:52:29;;;;;;;11.57;10.07;;;-1.20;99.90;;;;;;5057142;28;20468;-66
2022/03/07 02:54:56;;;;;;;11.97;9.83;;;-1.30;99.90;;;;;;5056426;28;20839;-66
2022/03/07 02:57:24;;;;;;;12.40;10.10;;;-1.40;99.90;;;;;;5056597;28;20458;-66
2022/03/07 02:59:51;;;;;;;13.27;10.37;;;-1.40;99.90;;;;;;5056502;28;21052;-66
2022/03/07 03:02:18;;;;;;;12.90;9.73;;;-1.40;99.90;;;;;;5056407;28;20555;-66
2022/03/07 03:04:45;;;;;;;10.43;9.23;;;-1.40;99.90;;;;;;5056473;28;20448;-66
2022/03/07 03:07:12;;;;;;;11.80;10.60;;;-1.40;99.90;;;;;;5056308;28;20446;-68
2022/03/07 03:09:39;;;;;;;12.27;10.53;;;-1.40;99.90;;;;;;5056680;28;20443;-66
2022/03/07 03:12:10;;;;;;;14.10;11.13;;;-1.40;99.90;;;;;;5056382;28;20475;-66
2022/03/07 03:14:38;;;;;;;12.40;9.60;;;-1.40;99.90;;;;;;5056268;28;20534;-66
2022/03/07 03:17:06;;;;;;;16.67;10.73;;;-1.40;99.90;;;;;;5056867;28;20451;-66
2022/03/07 03:19:32;;;;;;;13.40;9.57;;;-1.50;99.90;;;;;;5056352;28;20955;-66
2022/03/07 03:21:59;;;;;;;14.67;10.63;;;-1.60;99.90;;;;;;5056688;28;20474;-66
2022/03/07 03:24:26;;;;;;;13.13;10.27;;;-1.70;99.90;;;;;;5056406;28;20454;-66
2022/03/07 03:26:53;;;;;;;14.87;10.87;;;-1.70;99.90;;;;;;5056685;28;20542;-66
2022/03/07 03:29:21;;;;;;;12.10;9.67;;;-1.60;99.90;;;;;;5056870;28;20440;-66
2022/03/07 03:31:49;;;;;;;12.50;10.90;;;-1.60;99.90;;;;;;5056731;28;20479;-66
2022/03/07 03:34:16;;;;;;;13.67;10.13;;;-1.60;99.90;;;;;;5056442;28;20534;-66
2022/03/07 03:36:43;;;;;;;13.43;10.70;;;-1.60;99.90;;;;;;5053692;28;20444;-68
2022/03/07 03:39:09;;;;;;;13.37;10.90;;;-1.50;99.90;;;;;;5053238;28;20484;-66
2022/03/07 03:41:36;;;;;;;15.00;10.70;;;-1.50;99.90;;;;;;5053463;28;20467;-66
2022/03/07 03:44:03;;;;;;;17.00;10.67;;;-1.40;99.90;;;;;;5052829;28;20531;-66
2022/03/07 03:46:30;;;;;;;15.00;10.73;;;-1.40;99.90;;;;;;5053160;28;21105;-66
2022/03/07 03:48:59;;;;;;;13.40;10.80;;;-1.30;99.90;;;;;;5053322;28;20533;-66
2022/03/07 03:51:26;;;;;;;13.87;10.70;;;-1.20;99.90;;;;;;5053009;28;20463;-66
2022/03/07 03:53:53;;;;;;;14.57;11.40;;;-1.00;99.90;;;;;;5052929;28;20454;-66
2022/03/07 03:56:19;;;;;;;14.80;11.00;;;-1.00;99.80;;;;;;5053081;28;20527;-67
2022/03/07 03:58:46;;;;;;;13.20;10.87;;;-1.00;99.90;;;;;;5052820;28;20448;-66
2022/03/07 04:01:13;;;;;;;15.00;9.57;;;-1.10;99.90;;;;;;5052707;28;20464;-66
2022/03/07 04:03:40;;;;;;;14.43;11.00;;;-1.20;99.90;;;;;;5053116;28;20448;-66
2022/03/07 04:06:08;;;;;;;12.00;9.53;;;-1.30;99.90;;;;;;5052526;28;20471;-66
2022/03/07 04:09:05;;;;;;;17.67;11.70;;;-1.40;99.90;;;;;;5053199;28;20448;-67
2022/03/07 04:11:32;;;;;;;15.93;11.20;;;-1.60;99.90;;;;;;5045652;28;20486;-66
2022/03/07 04:13:58;;;;;;;13.90;11.00;;;-1.60;99.90;;;;;;5052604;28;20451;-66
2022/03/07 04:16:25;;;;;;;13.73;11.20;;;-1.50;99.90;;;;;;5052470;28;20543;-67
2022/03/07 04:18:52;;;;;;;15.77;11.50;;;-1.50;99.90;;;;;;5052702;28;20903;-66
2022/03/07 04:21:20;;;;;;;15.77;11.37;;;-1.40;99.90;;;;;;5052799;28;20468;-66
2022/03/07 04:23:47;;;;;;;15.70;11.13;;;-1.40;99.90;;;;;;5052904;28;20454;-66
2022/03/07 04:26:16;;;;;;;16.67;11.60;;;-1.30;99.90;;;;;;5052903;28;20450;-66
2022/03/07 04:28:43;;;;;;;17.10;12.37;;;-1.30;99.90;;;;;;5053137;28;20960;-66
2022/03/07 04:31:10;;;;;;;16.73;11.80;;;-1.20;99.90;;;;;;5052734;28;20529;-66
2022/03/07 04:33:36;;;;;;;13.17;10.70;;;-1.20;99.90;;;;;;5052807;28;20456;-66
2022/03/07 04:36:04;;;;;;;12.97;11.03;;;-1.20;99.90;;;;;;5051913;28;20536;-66
2022/03/07 04:38:32;;;;;;;15.97;10.77;;;-1.30;99.90;;;;;;5052560;28;20845;-67
2022/03/07 04:40:59;;;;;;;15.30;11.97;;;-1.30;99.90;;;;;;5052580;28;20490;-67
2022/03/07 04:43:26;;;;;;;13.77;11.03;;;-1.50;99.90;;;;;;5052791;28;20448;-66
2022/03/07 04:45:53;;;;;;;13.83;11.07;;;-1.50;99.90;;;;;;5051124;28;20547;-66
2022/03/07 04:48:20;;;;;;;12.90;11.00;;;-1.60;99.90;;;;;;5051276;28;20953;-66
2022/03/07 04:50:47;;;;;;;12.20;10.43;;;-1.60;99.90;;;;;;5051714;28;20468;-66
2022/03/07 04:53:14;;;;;;;17.63;11.67;;;-1.60;99.90;;;;;;5051734;28;21041;-66
2022/03/07 04:55:42;;;;;;;16.53;11.63;;;-1.60;99.90;;;;;;5051539;28;20460;-66
2022/03/07 04:58:09;;;;;;;16.70;13.00;;;-1.60;99.90;;;;;;5051809;28;20455;-66
2022/03/07 05:00:36;;;;;;;14.80;11.20;;;-1.50;99.90;;;;;;5051427;28;20495;-66
2022/03/07 05:03:03;;;;;;;15.17;12.40;;;-1.50;99.90;;;;;;5051619;28;20614;-66
2022/03/07 05:05:30;;;;;;;16.03;11.83;;;-1.60;99.90;;;;;;5051658;28;20440;-66
2022/03/07 05:07:56;;;;;;;17.63;12.23;;;-1.60;99.90;;;;;;5052060;28;21184;-66
2022/03/07 05:10:23;;;;;;;18.73;13.93;;;-1.60;99.90;;;;;;5051574;28;20444;-66
2022/03/07 05:12:52;;;;;;;13.57;11.60;;;-1.60;99.90;;;;;;5046256;28;20452;-66
2022/03/07 05:15:18;;;;;;;16.23;11.77;;;-1.60;99.90;;;;;;5045339;28;20449;-66
2022/03/07 05:17:48;;;;;;;16.00;13.33;;;-1.60;99.90;;;;;;5047919;28;20468;-66
2022/03/07 05:20:17;;;;;;;13.00;10.80;;;-1.60;99.90;;;;;;5051369;28;20483;-66
2022/03/07 05:22:44;;;;;;;18.17;12.47;;;-1.60;99.90;;;;;;5051399;28;20448;-66
2022/03/07 05:25:12;;;;;;;16.50;12.60;;;-1.60;99.90;;;;;;5050742;28;20448;-66
2022/03/07 05:27:40;;;;;;;17.87;12.50;;;-1.60;99.90;;;;;;5050817;28;20470;-68
2022/03/07 05:30:11;;;;;;;14.67;11.80;;;-1.50;99.90;;;;;;5050411;28;20981;-67
2022/03/07 05:32:38;;;;;;;17.00;11.50;;;-1.40;99.90;;;;;;5050763;28;20835;-66
2022/03/07 05:35:06;;;;;;;12.87;10.63;;;-1.50;99.90;;;;;;5050709;28;20440;-66
2022/03/07 05:37:34;;;;;;;18.90;11.93;;;-1.50;99.90;;;;;;5051047;28;20531;-66
2022/03/07 05:40:00;;;;;;;14.07;10.97;;;-1.50;99.90;;;;;;5050733;28;20482;-66
2022/03/07 05:42:27;;;;;;;18.20;12.60;;;-1.50;99.90;;;;;;5050495;28;20468;-66
2022/03/07 05:44:54;;;;;;;14.30;11.97;;;-1.50;99.90;;;;;;5049993;28;20470;-66
2022/03/07 05:47:22;;;;;;;15.77;12.50;;;-1.50;99.90;;;;;;5050517;28;20545;-65
2022/03/07 05:49:49;;;;;;;15.80;11.70;;;-1.50;99.90;;;;;;5050128;28;20540;-66
2022/03/07 05:52:16;;;;;;;16.63;10.70;;;-1.50;99.90;;;;;;5050081;28;20475;-66
2022/03/07 05:54:43;;;;;;;19.57;11.50;;;-1.50;99.90;;;;;;5049605;28;20448;-66
2022/03/07 05:57:10;;;;;;;16.13;11.47;;;-1.60;99.90;;;;;;5049809;28;20463;-66
2022/03/07 05:59:37;;;;;;;18.60;13.00;;;-1.60;99.90;;;;;;5048907;28;20472;-66
2022/03/07 06:02:04;;;;;;;13.67;11.00;;;-1.60;99.90;;;;;;5049862;28;20850;-65
2022/03/07 06:04:33;;;;;;;13.03;10.60;;;-1.60;99.90;;;;;;5045037;28;21238;-65
2022/03/07 06:06:59;;;;;;;17.20;13.07;;;-1.60;99.90;;;;;;5038835;28;20444;-66
2022/03/07 06:09:26;;;;;;;18.40;13.47;;;-1.60;99.90;;;;;;5037654;28;20450;-66
2022/03/07 06:11:53;;;;;;;16.27;12.27;;;-1.60;99.90;;;;;;5039430;28;20858;-66
2022/03/07 06:14:20;;;;;;;18.70;12.90;;;-1.50;99.90;;;;;;5039059;28;20448;-66
2022/03/07 06:16:47;;;;;;;16.20;12.27;;;-1.50;99.90;;;;;;5036600;28;20536;-65
2022/03/07 06:19:14;;;;;;;17.03;12.03;;;-1.40;99.90;;;;;;5031320;28;20974;-66
2022/03/07 06:21:42;;;;;;;14.60;10.87;;;-1.30;99.90;;;;;;5032449;28;20599;-65
2022/03/07 06:24:09;;;;;;;18.00;11.87;;;-1.20;99.90;;;;;;5030581;28;20453;-66
2022/03/07 06:26:36;;;;;;;18.53;12.37;;;-1.30;99.90;;;;;;5045663;28;20830;-65
2022/03/07 06:29:05;;;;;;;13.53;10.27;;;-1.30;99.90;;;;;;5049833;28;20444;-66
2022/03/07 06:31:32;;;;;;;14.23;10.73;;;-1.30;99.90;;;;;;5041078;28;20510;-66
2022/03/07 06:33:59;;;;;;;15.00;11.30;;;-1.30;99.90;;;;;;5037618;28;20440;-66
2022/03/07 06:36:27;;;;;;;14.17;9.63;;;-1.20;99.90;;;;;;5034213;28;20510;-67
2022/03/07 06:38:55;;;;;;;11.20;9.20;;;-1.20;99.90;;;;;;5034697;28;20481;-66
2022/03/07 06:41:22;;;;;;;14.30;9.63;;;-1.20;99.90;;;;;;5034113;28;20572;-66
2022/03/07 06:43:49;;;;;;;12.80;10.07;;;-1.20;99.90;;;;;;5040628;28;20759;-66
2022/03/07 06:46:15;;;;;;;15.57;10.27;;;-1.20;99.90;;;;;;5031013;28;20473;-66
2022/03/07 06:48:42;;;;;;;11.93;10.00;;;-1.20;99.90;;;;;;5039230;28;20452;-65
2022/03/07 06:51:09;;;;;;;13.07;10.07;;;-1.30;99.90;;;;;;5043361;28;20468;-66
2022/03/07 06:53:36;;;;;;;16.40;10.10;;;-1.20;99.90;;;;;;5033115;28;20464;-66
2022/03/07 06:56:05;;;;;;;14.97;10.53;;;-1.20;99.90;;;;;;5031535;28;20530;-66
2022/03/07 06:58:32;;;;;;;15.70;10.00;;;-1.20;99.90;;;;;;5036697;28;20532;-65
2022/03/07 07:00:59;;;;;;;13.90;10.20;;;-1.20;99.90;;;;;;5033936;28;20486;-66
2022/03/07 07:03:25;;;;;;;13.33;11.33;;;-1.10;99.90;;;;;;5043188;28;20538;-66
2022/03/07 07:05:52;;;;;;;13.37;9.60;;;-1.00;99.90;;;;;;5045368;28;20474;-66
2022/03/07 07:08:19;;;;;;;11.30;9.50;;;-0.80;99.90;;;;;;5031282;28;20445;-66
2022/03/07 07:10:46;;;;;;;12.17;9.00;;;-0.60;99.90;;;;;;5029819;28;20468;-66
2022/03/07 07:13:14;;;;;;;15.03;9.10;;;-0.50;99.90;;;;;;5033404;28;20454;-66
2022/03/07 07:15:41;;;;;;;15.93;8.90;;;-0.30;99.90;;;;;;5031625;28;20540;-66
2022/03/07 07:18:08;;;;;;;13.10;8.03;;;-0.20;99.90;;;;;;5032972;28;20444;-66
2022/03/07 07:20:35;;;;;;;13.23;9.77;;;-0.20;99.90;;;;;;5032566;28;21020;-67
2022/03/07 07:23:02;;;;;;;10.40;8.33;;;-0.10;99.90;;;;;;5032977;28;20535;-66
2022/03/07 07:25:28;;;;;;;13.40;9.30;;;0.00;99.90;;;;;;5032747;28;20441;-67
2022/03/07 07:27:55;;;;;;;11.60;8.90;;;0.20;99.90;;;;;;5032867;28;20455;-66
2022/03/07 07:30:23;;;;;;;11.67;9.43;;;0.30;99.90;;;;;;5032735;28;20547;-66
2022/03/07 07:32:51;;;;;;;11.23;8.80;;;0.50;99.90;;;;;;5032820;28;20441;-66
2022/03/07 07:35:18;;;;;;;10.90;8.33;;;0.80;99.90;;;;;;5032344;28;20452;-66
2022/03/07 07:37:45;;;;;;;11.37;8.50;;;0.90;99.90;;;;;;5032347;28;20564;-66
2022/03/07 07:40:12;;;;;;;12.37;9.20;;;1.00;99.90;;;;;;5032733;28;20476;-67
2022/03/07 07:42:38;;;;;;;9.63;8.50;;;1.10;99.90;;;;;;5032702;28;20461;-66
2022/03/07 07:45:06;;;;;;;10.97;8.77;;;1.10;99.90;;;;;;5032134;28;20453;-66
2022/03/07 07:47:34;;;;;;;12.83;8.60;;;1.10;99.90;;;;;;5032497;28;20457;-66
2022/03/07 07:50:01;;;;;;;12.40;9.50;;;1.10;99.90;;;;;;5032455;28;20487;-67
2022/03/07 07:52:28;;;;;;;9.97;7.73;;;1.10;99.90;;;;;;5032277;28;20480;-66
2022/03/07 07:54:55;;;;;;;10.70;9.10;;;1.10;99.90;;;;;;5031897;28;20532;-66
2022/03/07 07:57:21;;;;;;;10.60;8.57;;;1.20;99.90;;;;;;5032260;28;20445;-67
2022/03/07 07:59:48;;;;;;;11.37;9.40;;;1.30;99.90;;;;;;5032128;28;20452;-66
2022/03/07 08:02:15;;;;;;;11.13;8.70;;;1.40;99.90;;;;;;5031943;28;20469;-66
2022/03/07 08:04:43;;;;;;;10.93;9.73;;;1.50;99.90;;;;;;5031891;28;20448;-66
2022/03/07 08:07:10;;;;;;;13.63;10.60;;;1.60;99.90;;;;;;5032025;28;20958;-65
2022/03/07 08:09:37;;;;;;;12.40;9.50;;;1.60;99.90;;;;;;5032191;28;20451;-66
2022/03/07 08:12:04;;;;;;;12.70;10.00;;;1.70;99.90;;;;;;5032140;28;20552;-66
2022/03/07 08:14:32;;;;;;;14.40;10.13;;;1.70;99.90;;;;;;5031922;28;20463;-66
2022/03/07 08:16:58;;;;;;;13.63;10.20;;;1.70;99.90;;;;;;5032111;28;20453;-66
2022/03/07 08:19:25;;;;;;;12.73;10.13;;;1.80;99.90;;;;;;5032311;28;20480;-66
2022/03/07 08:21:53;;;;;;;13.97;10.77;;;1.90;99.90;;;;;;5031134;28;20489;-66
2022/03/07 08:24:20;;;;;;;12.27;9.13;;;2.00;99.90;;;;;;5031768;28;20445;-66
2022/03/07 08:26:47;;;;;;;12.90;9.30;;;2.10;99.90;;;;;;5031794;28;20455;-66
2022/03/07 08:29:14;;;;;;;11.77;10.30;;;2.20;99.90;;;;;;5032066;28;20463;-66
2022/03/07 08:31:41;;;;;;;12.73;9.40;;;2.30;99.90;;;;;;5031586;28;20576;-66
2022/03/07 08:34:08;;;;;;;19.37;10.40;;;2.30;99.90;;;;;;5031654;28;20555;-66
2022/03/07 08:36:35;;;;;;;12.03;9.53;;;2.40;99.90;;;;;;5031672;28;20463;-66
2022/03/07 08:39:03;;;;;;;13.87;10.87;;;2.50;99.90;;;;;;5031509;28;20453;-66
2022/03/07 08:41:30;;;;;;;15.97;12.07;;;2.60;99.90;;;;;;5031267;28;21018;-66
2022/03/07 08:43:57;;;;;;;13.33;11.37;;;2.80;99.90;;;;;;5031104;28;20453;-66
2022/03/07 08:46:24;;;;;;;12.73;9.37;;;2.90;99.70;;;;;;5031023;28;20455;-66
2022/03/07 08:48:51;;;;;;;10.53;9.40;;;3.10;99.30;;;;;;5031095;28;20485;-65
2022/03/07 08:51:18;;;;;;;11.43;9.60;;;3.30;99.10;;;;;;5031159;28;20496;-66
2022/03/07 08:53:45;;;;;;;12.43;9.90;;;3.40;98.50;;;;;;5031205;28;20456;-64
2022/03/07 08:56:14;;;;;;;13.50;11.07;;;3.60;97.80;;;;;;5030888;28;20958;-64
2022/03/07 08:58:41;;;;;;;11.50;9.60;;;3.60;96.60;;;;;;5030951;28;20457;-64
2022/03/07 09:01:09;;;;;;;11.97;10.20;;;3.70;97.00;;;;;;5031141;28;20493;-64
2022/03/07 09:03:36;;;;;;;15.13;10.90;;;3.70;96.40;;;;;;5031082;28;20912;-65
2022/03/07 09:06:03;;;;;;;13.20;10.90;;;3.70;96.60;;;;;;5030680;28;20527;-64
2022/03/07 09:08:30;;;;;;;15.17;11.50;;;3.80;95.80;;;;;;5030974;28;20893;-64
2022/03/07 09:10:57;;;;;;;13.17;11.60;;;3.90;96.30;;;;;;5030832;28;20461;-64
2022/03/07 09:13:25;;;;;;;12.40;11.10;;;4.20;95.50;;;;;;5030642;28;21025;-65
2022/03/07 09:15:55;;;;;;;13.63;11.27;;;4.40;95.60;;;;;;5030806;28;20445;-65
2022/03/07 09:18:22;;;;;;;12.37;10.57;;;4.50;94.70;;;;;;5030744;28;20453;-65
2022/03/07 09:20:49;;;;;;;14.03;11.63;;;4.50;94.30;;;;;;5030442;28;20986;-65
2022/03/07 09:23:16;;;;;;;11.33;10.23;;;4.30;94.70;;;;;;5030763;28;20457;-65
2022/03/07 09:25:43;;;;;;;12.87;10.67;;;4.40;94.60;;;;;;5030217;28;20523;-65
2022/03/07 09:28:10;;;;;;;13.93;10.80;;;4.60;94.50;;;;;;5030488;28;20971;-65
2022/03/07 09:30:38;;;;;;;14.37;11.70;;;4.80;94.00;;;;;;5030411;28;20555;-65
2022/03/07 09:33:05;;;;;;;12.80;10.33;;;4.80;94.00;;;;;;5030430;28;20459;-65
2022/03/07 09:35:32;;;;;;;12.67;10.87;;;4.70;93.50;;;;;;5030302;28;20535;-65
2022/03/07 09:37:59;;;;;;;12.23;10.37;;;4.70;93.40;;;;;;5030294;28;20440;-65
2022/03/07 09:40:25;;;;;;;12.77;10.93;;;5.10;93.80;;;;;;5030076;28;20461;-65
2022/03/07 09:42:53;;;;;;;14.03;11.57;;;5.30;92.90;;;;;;5030374;28;20445;-65
2022/03/07 09:45:20;;;;;;;14.40;10.80;;;5.10;92.20;;;;;;5029922;28;20451;-65
2022/03/07 09:47:50;;;;;;;13.13;11.17;;;5.10;93.00;;;;;;5030269;28;20881;-65
2022/03/07 09:50:17;;;;;;;12.73;10.30;;;5.50;93.00;;;;;;5030002;28;20832;-65
2022/03/07 09:52:46;;;;;;;12.33;10.53;;;5.70;91.90;;;;;;5030105;28;20451;-65
2022/03/07 09:55:14;;;;;;;12.77;10.20;;;6.00;91.00;;;;;;5029999;28;20449;-65
2022/03/07 09:57:41;;;;;;;13.87;11.80;;;6.10;90.60;;;;;;5030022;28;20448;-65
2022/03/07 10:00:10;;;;;;;11.17;10.00;;;6.10;90.00;;;;;;5030298;28;20495;-65
2022/03/07 10:02:37;;;;;;;11.77;10.57;;;6.20;90.00;;;;;;5030422;28;20860;-66
2022/03/07 10:05:06;;;;;;;12.00;10.80;;;6.30;89.20;;;;;;5032055;28;20520;-66
2022/03/07 10:07:44;;;;;;;13.60;11.47;;;6.20;88.20;;;;;;5032160;28;20445;-65
2022/03/07 10:10:11;;;;;;;12.50;10.97;;;5.90;87.70;;;;;;5032716;28;20506;-65
2022/03/07 10:12:45;;;;;;;11.50;10.30;;;5.90;89.10;;;;;;5031158;28;20465;-66
2022/03/07 10:15:13;;;;;;;13.43;11.13;;;5.90;89.60;;;;;;5029971;28;20944;-66
2022/03/07 10:17:41;;;;;;;11.83;10.47;;;6.10;88.80;;;;;;5030056;28;20445;-65
2022/03/07 10:20:11;;;;;;;14.43;10.80;;;6.10;88.20;;;;;;5030141;28;20453;-65
2022/03/07 10:22:46;;;;;;;11.43;10.00;;;6.30;87.20;;;;;;5029969;28;20480;-66
2022/03/07 10:25:13;;;;;;;11.73;10.50;;;6.40;87.30;;;;;;5029514;28;20447;-65
2022/03/07 10:27:42;;;;;;;12.23;10.60;;;6.40;85.00;;;;;;5029658;28;20883;-66
2022/03/07 10:30:11;;;;;;;11.67;9.30;;;6.70;84.70;;;;;;5029356;28;20455;-66
2022/03/07 10:32:38;;;;;;;12.10;9.87;;;6.40;83.50;;;;;;5029692;28;20473;-66
2022/03/07 10:35:06;;;;;;;13.53;10.90;;;5.90;84.10;;;;;;5029237;28;20495;-65
2022/03/07 10:37:36;;;;;;;11.97;10.63;;;5.40;86.60;;;;;;5029553;28;20449;-65
2022/03/07 10:40:07;;;;;;;10.87;9.43;;;5.20;86.90;;;;;;5029648;28;20453;-66
2022/03/07 10:42:44;;;;;;;12.50;10.67;;;5.10;86.90;;;;;;5029109;28;20535;-65
2022/03/07 10:45:11;;;;;;;12.27;9.60;;;4.90;88.10;;;;;;5030202;28;20448;-66
2022/03/07 10:47:38;;;;;;;10.53;9.47;;;4.90;88.90;;;;;;5033590;28;20977;-65
2022/03/07 10:50:07;;;;;;;12.30;10.60;;;4.70;88.10;;;;;;5033439;28;20862;-66
2022/03/07 10:52:40;;;;;;;10.97;9.77;;;4.70;88.10;;;;;;5033314;28;20469;-65
2022/03/07 10:55:08;;;;;;;11.07;9.87;;;4.70;88.50;;;;;;5033227;28;20564;-65
2022/03/07 10:57:37;;;;;;;10.50;9.40;;;4.50;88.10;;;;;;5033690;28;20897;-66
2022/03/07 11:00:07;;;;;;;12.30;8.77;;;4.40;90.00;;;;;;5033914;28;20833;-66
2022/03/07 11:02:40;;;;;;;11.30;9.57;;;4.90;88.60;;;;;;5033605;28;20567;-66
2022/03/07 11:05:08;;;;;;;11.00;9.50;;;5.80;87.80;;;;;;5033168;28;20502;-66
2022/03/07 11:07:37;;;;;;;11.73;10.37;;;7.00;85.20;;;;;;5033396;28;20877;-66
2022/03/07 11:10:07;;;;;;;12.83;9.60;;;8.20;80.70;;;;;;5033455;28;20524;-66
2022/03/07 11:12:34;;;;;;;13.17;9.87;;;8.80;78.60;;;;;;5033431;28;20473;-66
2022/03/07 11:15:08;;;;;;;11.63;10.40;;;8.50;73.40;;;;;;5033038;28;20970;-66
2022/03/07 11:17:39;;;;;;;11.43;10.23;;;8.40;79.90;;;;;;5033215;28;20452;-66
2022/03/07 11:20:07;;;;;;;11.23;10.13;;;9.00;75.60;;;;;;5033387;28;20456;-66
2022/03/07 11:22:35;;;;;;;11.77;10.53;;;8.70;75.00;;;;;;5033060;28;20493;-66
2022/03/07 11:25:03;;;;;;;10.60;9.50;;;8.50;73.40;;;;;;5032861;28;20973;-66
2022/03/07 11:27:32;;;;;;;11.87;10.70;;;8.30;74.40;;;;;;5033335;28;20445;-66
2022/03/07 11:29:59;;;;;;;12.80;10.23;;;8.70;75.90;;;;;;5033073;28;20834;-66
2022/03/07 11:32:26;;;;;;;11.87;10.67;;;9.50;74.20;;;;;;5033020;28;20460;-66
2022/03/07 11:34:56;;;;;;;11.30;10.10;;;9.10;71.40;;;;;;5033154;28;20495;-67
2022/03/07 11:37:24;;;;;;;10.97;9.87;;;9.00;72.60;;;;;;5032993;28;20448;-66
2022/03/07 11:39:56;;;;;;;13.10;10.10;;;9.20;70.40;;;;;;5033098;28;20451;-66
2022/03/07 11:42:23;;;;;;;11.60;10.40;;;8.40;68.30;;;;;;5032967;28;20580;-65
2022/03/07 11:44:51;;;;;;;11.63;10.40;;;7.20;71.70;;;;;;5032649;28;20539;-66
2022/03/07 11:47:19;;;;;;;12.60;9.33;;;6.80;72.60;;;;;;5032750;28;20452;-66
2022/03/07 11:49:58;;;;;;;11.67;10.13;;;8.00;76.20;;;;;;5032932;28;20528;-66
2022/03/07 11:52:25;;;;;;;10.23;9.20;;;9.50;70.60;;;;;;5033215;28;20467;-68
2022/03/07 11:54:54;;;;;;;10.27;9.17;;;10.60;68.50;;;;;;5032576;28;20985;-66
2022/03/07 11:57:32;;;;;;;11.10;10.00;;;12.00;64.60;;;;;;5031735;28;20468;-66
2022/03/07 12:00:21;;;;;;;11.13;10.03;;;13.40;61.10;;;;;;5032916;28;20451;-66
2022/03/07 12:02:51;;;;;;;11.30;10.20;;;13.80;57.40;;;;;;5032695;28;20493;-66
2022/03/07 12:05:35;;;;;;;11.37;10.33;;;14.10;55.20;;;;;;5032345;28;20487;-65
2022/03/07 12:08:13;;;;;;;12.23;11.03;;;14.20;55.00;;;;;;5032462;28;20437;-65
2022/03/07 12:10:53;;;;;;;12.67;11.30;;;13.20;52.50;;;;;;5032581;28;20548;-65
2022/03/07 12:13:20;;;;;;;11.63;10.43;;;11.20;55.60;;;;;;5032903;28;20455;-65
2022/03/07 12:15:50;;;;;;;12.20;10.90;;;11.70;58.00;;;;;;5032519;28;20539;-65
2022/03/07 12:18:17;;;;;;;12.40;11.13;;;12.50;57.40;;;;;;5032455;28;20448;-66
2022/03/07 12:20:52;;;;;;;12.67;10.47;;;12.80;55.60;;;;;;5032172;28;20465;-66
2022/03/07 12:23:22;;;;;;;14.00;10.73;;;13.60;55.70;;;;;;5032004;28;20482;-66
2022/03/07 12:25:57;;;;;;;12.27;10.97;;;14.30;53.50;;;;;;5032002;28;20540;-66
2022/03/07 12:28:27;;;;;;;11.20;10.10;;;14.30;52.80;;;;;;5032179;28;20444;-66
2022/03/07 12:30:56;;;;;;;11.00;9.90;;;14.70;52.00;;;;;;5032032;28;20555;-66
2022/03/07 12:33:23;;;;;;;11.70;10.60;;;15.40;50.70;;;;;;5044328;28;20448;-67
2022/03/07 12:35:59;;;;;;;12.03;10.90;;;15.30;50.20;;;;;;5047944;28;20436;-66
2022/03/07 12:38:26;;;;;;;12.00;10.90;;;15.30;51.20;;;;;;5033622;28;20443;-66